Pagrindinis puslapis
METAR-TAF:

METAR-TAF

Oro uostai :

Lytton, Britų Kolumbija, Kanada

platuma: 50-14N, ilguma: 121-35W, Aukštis: 229 m

Dabartinis oras

Ataskaita buvo paskelbta 23 minutes, ne 14:00 UTC
Ramus vėjas
Temperatūra -6°C
Drėgmė 93%
Slėgis 1031 hPa
Matomumas: 14.5 km
Giedras dangus

METAR: CWLY 191400Z AUTO 00000KT 9SM CLR M06/M07 A3046 RMK SLP329

Laikas: 06:23 (14:23 UTC)


TAF: trūkstamas

Orai ataskaitas ir orų prognozės (METAR, TAF).

turimą stotys yra geltonos ir raudonos taškus žemėlapyje.

Perkelti pele per norėdami pamatyti stoties vardą.

Tada spustelėkite, norėdami matyti oro stebėjimo ir prognozės.

Norėdami pakeisti žemėlapį: spustelėkite ant žalios mygtukų su juodo kryžiaus žemyn,; žalią mygtuką su brūkšneliu, jei norite nutolinti; arba žalių rodyklių gretimoms žemėlapius.


METAR-TAF: